createdAt,value
2022-08-26T00:00:51.789Z,22.40
2022-08-26T00:03:20.844Z,22.36
2022-08-26T00:05:52.074Z,22.19
2022-08-26T00:08:21.685Z,21.95
2022-08-26T00:10:50.344Z,21.89
2022-08-26T00:13:19.520Z,21.85
2022-08-26T00:15:48.270Z,21.92
2022-08-26T00:18:22.270Z,22.02
2022-08-26T00:20:52.826Z,22.12
2022-08-26T00:23:24.067Z,22.15
2022-08-26T00:25:53.094Z,22.25
2022-08-26T00:28:22.935Z,22.07
2022-08-26T00:30:52.522Z,22.08
2022-08-26T00:33:23.114Z,22.11
2022-08-26T00:35:53.062Z,22.00
2022-08-26T00:38:22.881Z,21.91
2022-08-26T00:40:53.956Z,21.84
2022-08-26T00:43:24.226Z,21.82
2022-08-26T00:45:58.549Z,21.69
2022-08-26T00:48:31.902Z,21.75
2022-08-26T00:51:07.661Z,21.48
2022-08-26T00:53:41.496Z,21.46
2022-08-26T00:56:17.023Z,21.43
2022-08-26T00:58:48.102Z,21.56
2022-08-26T01:01:17.410Z,21.65
2022-08-26T01:03:47.575Z,21.73
2022-08-26T01:06:18.036Z,21.75
2022-08-26T01:08:46.510Z,21.77
2022-08-26T01:11:15.306Z,21.78
2022-08-26T01:13:45.333Z,21.79
2022-08-26T01:16:16.906Z,21.79
2022-08-26T01:18:46.976Z,21.76
2022-08-26T01:21:23.099Z,21.74
2022-08-26T01:23:57.280Z,21.74
2022-08-26T01:26:29.822Z,21.61
2022-08-26T01:29:01.606Z,21.56
2022-08-26T01:31:34.043Z,21.46
2022-08-26T01:34:07.782Z,21.54
2022-08-26T01:36:38.735Z,21.50
2022-08-26T01:39:09.919Z,21.56
2022-08-26T01:41:40.681Z,21.53
2022-08-26T01:44:19.535Z,21.54
2022-08-26T01:46:52.367Z,21.59
2022-08-26T01:49:24.305Z,21.61
2022-08-26T01:51:56.686Z,21.53
2022-08-26T01:54:28.131Z,21.43
2022-08-26T01:56:56.740Z,21.49
2022-08-26T01:59:26.682Z,21.29
2022-08-26T02:01:55.378Z,21.36
2022-08-26T02:04:28.880Z,21.40
2022-08-26T02:06:59.135Z,21.34
2022-08-26T02:09:29.100Z,21.38
2022-08-26T02:12:01.766Z,21.32
2022-08-26T02:14:34.571Z,21.24
2022-08-26T02:17:04.761Z,21.20
2022-08-26T02:19:40.918Z,21.11
2022-08-26T02:22:16.325Z,21.06
2022-08-26T02:24:51.121Z,21.02
2022-08-26T02:27:25.065Z,21.01
2022-08-26T02:30:00.137Z,21.00
2022-08-26T02:32:29.940Z,20.98
2022-08-26T02:34:58.438Z,21.00
2022-08-26T02:37:30.083Z,20.92
2022-08-26T02:40:00.204Z,20.92
2022-08-26T02:42:28.782Z,20.99
2022-08-26T02:44:57.907Z,20.94
2022-08-26T02:47:28.960Z,21.04
2022-08-26T02:49:57.765Z,21.04
2022-08-26T02:52:26.290Z,21.06
2022-08-26T02:54:56.828Z,21.04
2022-08-26T02:57:26.759Z,20.99
2022-08-26T02:59:55.241Z,20.97
2022-08-26T03:02:23.799Z,20.86
2022-08-26T03:04:57.888Z,20.76
2022-08-26T03:07:32.181Z,20.50
2022-08-26T03:10:01.362Z,20.23
2022-08-26T03:12:38.305Z,20.18
2022-08-26T03:15:17.344Z,20.11
2022-08-26T03:17:47.917Z,20.09
2022-08-26T03:20:17.635Z,20.11
2022-08-26T03:22:46.821Z,19.99
2022-08-26T03:25:18.364Z,20.10
2022-08-26T03:27:48.471Z,20.17
2022-08-26T03:30:35.274Z,20.24
2022-08-26T03:33:04.294Z,20.37
2022-08-26T03:35:33.318Z,20.48
2022-08-26T03:38:03.567Z,20.52
2022-08-26T03:40:33.900Z,20.41
2022-08-26T03:43:06.393Z,20.28
2022-08-26T03:45:38.202Z,20.14
2022-08-26T03:48:07.107Z,20.17
2022-08-26T03:50:36.624Z,20.27
2022-08-26T03:53:07.469Z,20.24
2022-08-26T03:55:43.179Z,20.25
2022-08-26T03:58:13.261Z,20.29
2022-08-26T04:04:00.825Z,20.13
2022-08-26T04:06:32.755Z,20.14
2022-08-26T04:09:03.407Z,20.19
2022-08-26T04:11:35.247Z,20.12
2022-08-26T04:14:10.454Z,20.15
2022-08-26T04:16:39.204Z,20.20
2022-08-26T04:19:08.094Z,20.11
2022-08-26T04:21:38.418Z,20.09
2022-08-26T04:24:11.369Z,19.91
2022-08-26T04:26:42.820Z,20.05
2022-08-26T04:29:17.782Z,20.06
2022-08-26T04:31:47.076Z,20.11
2022-08-26T04:34:17.710Z,19.98
2022-08-26T04:36:46.253Z,19.96
2022-08-26T04:39:18.739Z,20.03
2022-08-26T04:41:50.292Z,19.86
2022-08-26T04:44:20.721Z,19.69
2022-08-26T04:46:50.124Z,19.79
2022-08-26T04:49:19.713Z,19.76
2022-08-26T04:51:49.103Z,19.76
2022-08-26T04:54:17.818Z,19.72
2022-08-26T04:56:49.689Z,19.63
2022-08-26T04:59:20.228Z,19.46
2022-08-26T05:01:56.443Z,19.44
2022-08-26T05:04:25.002Z,19.31
2022-08-26T05:06:57.824Z,19.21
2022-08-26T05:09:30.715Z,19.21
2022-08-26T05:11:59.386Z,19.22
2022-08-26T05:14:29.388Z,19.42
2022-08-26T05:16:58.100Z,19.49
2022-08-26T05:19:27.827Z,19.55
2022-08-26T05:21:56.641Z,19.66
2022-08-26T05:24:25.593Z,19.66
2022-08-26T05:26:54.247Z,19.81
2022-08-26T05:29:25.420Z,19.78
2022-08-26T05:31:55.989Z,19.74
2022-08-26T05:34:25.753Z,19.65
2022-08-26T05:36:58.727Z,19.73
2022-08-26T05:39:27.246Z,19.54
2022-08-26T05:41:55.681Z,19.55
2022-08-26T05:44:25.037Z,19.41
2022-08-26T05:46:53.562Z,19.21
2022-08-26T05:49:26.394Z,19.08
2022-08-26T05:51:55.247Z,19.11
2022-08-26T05:54:24.006Z,19.13
2022-08-26T05:56:52.795Z,19.15
2022-08-26T05:59:24.625Z,19.19
2022-08-26T06:01:54.993Z,19.35
2022-08-26T06:04:27.028Z,19.35
2022-08-26T06:06:58.621Z,19.45
2022-08-26T06:09:27.976Z,19.60
2022-08-26T06:11:58.843Z,19.72
2022-08-26T06:14:27.574Z,19.77
2022-08-26T06:16:56.185Z,19.92
2022-08-26T06:19:26.117Z,19.92
2022-08-26T06:22:23.533Z,20.02
2022-08-26T06:25:10.067Z,19.99
2022-08-26T06:27:38.743Z,20.02
2022-08-26T06:30:09.861Z,20.18
2022-08-26T06:32:38.314Z,20.43
2022-08-26T06:35:11.961Z,20.55
2022-08-26T06:37:41.243Z,20.61
2022-08-26T06:40:10.610Z,21.28
2022-08-26T06:42:40.326Z,22.06
2022-08-26T06:45:09.678Z,23.32
2022-08-26T06:47:39.815Z,24.39
2022-08-26T06:50:10.501Z,25.26
2022-08-26T06:52:39.112Z,25.88
2022-08-26T06:55:08.406Z,26.26
2022-08-26T06:57:39.710Z,26.31
2022-08-26T07:00:11.412Z,26.76
2022-08-26T07:02:41.159Z,28.10
2022-08-26T07:05:16.987Z,29.46
2022-08-26T07:07:45.452Z,29.94
2022-08-26T07:10:13.918Z,30.70
2022-08-26T07:12:42.601Z,30.27
2022-08-26T07:15:15.938Z,29.72
2022-08-26T07:17:44.820Z,29.56
2022-08-26T07:20:13.759Z,31.50
2022-08-26T07:22:43.903Z,30.99
2022-08-26T07:25:12.569Z,31.91
2022-08-26T07:27:41.062Z,32.44
2022-08-26T07:30:10.500Z,32.81
2022-08-26T07:32:43.586Z,33.23
2022-08-26T07:35:12.086Z,35.18
2022-08-26T07:37:40.755Z,36.55
2022-08-26T07:40:11.965Z,36.61
2022-08-26T07:42:40.766Z,36.59
2022-08-26T07:45:09.646Z,36.97
2022-08-26T07:47:38.399Z,37.80
2022-08-26T07:50:07.525Z,37.88
2022-08-26T07:52:37.755Z,38.60
2022-08-26T07:55:08.855Z,39.30
2022-08-26T07:57:39.979Z,40.59
2022-08-26T08:00:13.002Z,40.78
2022-08-26T08:02:44.724Z,40.82
2022-08-26T08:05:14.247Z,41.60
2022-08-26T08:07:44.790Z,42.66
2022-08-26T08:10:17.520Z,43.68
2022-08-26T08:12:49.744Z,44.50
2022-08-26T08:15:21.349Z,44.03
2022-08-26T08:17:51.535Z,44.83
2022-08-26T08:20:21.896Z,44.71
2022-08-26T08:22:52.230Z,46.00
2022-08-26T08:25:22.937Z,46.03
2022-08-26T08:27:52.832Z,45.19
2022-08-26T08:30:23.319Z,45.14
2022-08-26T08:32:52.480Z,45.97
2022-08-26T08:35:22.704Z,47.18
2022-08-26T08:37:54.515Z,47.18
2022-08-26T08:40:25.626Z,48.24
2022-08-26T08:43:00.739Z,48.26
2022-08-26T08:45:37.066Z,47.34
2022-08-26T08:48:12.182Z,47.43
2022-08-26T08:50:45.969Z,46.58
2022-08-26T08:53:18.750Z,46.11
2022-08-26T08:56:06.338Z,46.46
2022-08-26T08:58:52.737Z,47.36
2022-08-26T09:01:42.814Z,46.89
2022-08-26T09:04:35.278Z,48.14
2022-08-26T09:07:05.793Z,45.81
2022-08-26T09:09:39.249Z,45.85
2022-08-26T09:12:13.948Z,47.74
2022-08-26T09:14:44.583Z,47.67
2022-08-26T09:17:24.158Z,47.83
2022-08-26T09:19:55.943Z,46.32
2022-08-26T09:22:33.176Z,42.25
2022-08-26T09:25:03.358Z,41.55
2022-08-26T09:27:40.613Z,41.31
2022-08-26T09:30:13.619Z,39.48
2022-08-26T09:32:42.962Z,39.12
2022-08-26T09:35:27.671Z,40.03
2022-08-26T09:37:57.205Z,39.07
2022-08-26T09:40:30.706Z,39.13
2022-08-26T09:43:22.904Z,37.87
2022-08-26T09:45:59.255Z,38.03
2022-08-26T09:48:32.289Z,40.54
2022-08-26T09:51:07.038Z,40.25
2022-08-26T09:53:50.832Z,39.64
2022-08-26T09:56:27.584Z,38.96
2022-08-26T09:58:58.339Z,37.84
2022-08-26T10:01:33.481Z,38.28
2022-08-26T10:04:09.930Z,39.80
2022-08-26T10:06:43.421Z,39.43
2022-08-26T10:09:15.179Z,40.19
2022-08-26T10:11:47.146Z,40.22
2022-08-26T10:14:22.515Z,39.21
2022-08-26T10:16:58.250Z,42.32
2022-08-26T10:19:55.522Z,40.24
2022-08-26T10:22:25.246Z,41.32
2022-08-26T10:24:58.872Z,42.14
2022-08-26T10:27:37.709Z,41.94
2022-08-26T10:30:13.829Z,43.47
2022-08-26T10:32:50.125Z,43.33
2022-08-26T10:35:20.547Z,44.51
2022-08-26T10:37:54.302Z,41.94
2022-08-26T10:40:27.825Z,40.89
2022-08-26T10:42:59.685Z,42.17
2022-08-26T10:45:30.834Z,45.30
2022-08-26T10:48:06.709Z,45.73
2022-08-26T10:50:40.299Z,47.32
2022-08-26T10:53:14.712Z,44.19
2022-08-26T10:55:54.886Z,43.94
2022-08-26T10:58:39.074Z,45.08
2022-08-26T11:01:33.553Z,46.97
2022-08-26T11:04:10.046Z,47.16
2022-08-26T11:06:39.404Z,48.10
2022-08-26T11:09:10.717Z,49.90
2022-08-26T11:11:50.941Z,49.72
2022-08-26T11:14:53.396Z,48.26
2022-08-26T11:18:00.044Z,46.04
2022-08-26T11:20:42.020Z,42.92
2022-08-26T11:23:41.601Z,42.06
2022-08-26T11:26:35.582Z,44.85
2022-08-26T11:29:12.201Z,47.34
2022-08-26T11:31:56.115Z,47.93
2022-08-26T11:34:54.212Z,48.38
2022-08-26T11:37:30.998Z,49.10
2022-08-26T11:40:04.168Z,49.93
2022-08-26T11:42:41.671Z,50.11
2022-08-26T11:45:23.910Z,50.98
2022-08-26T11:47:52.755Z,51.54
2022-08-26T11:50:26.220Z,50.20
2022-08-26T11:53:01.956Z,50.11
2022-08-26T11:55:32.333Z,50.18
2022-08-26T11:58:06.614Z,50.82
2022-08-26T12:00:51.383Z,49.01
2022-08-26T12:03:24.026Z,48.03
2022-08-26T12:05:54.666Z,46.66
2022-08-26T12:08:28.702Z,44.87
2022-08-26T12:11:04.501Z,43.43
2022-08-26T12:13:33.107Z,41.10
2022-08-26T12:16:02.713Z,40.25
2022-08-26T12:18:34.770Z,40.14
2022-08-26T12:21:13.444Z,39.41
2022-08-26T12:23:46.703Z,39.39
2022-08-26T12:26:24.618Z,39.42
2022-08-26T12:28:57.544Z,39.18
2022-08-26T12:31:32.558Z,38.86
2022-08-26T12:34:04.956Z,38.86
2022-08-26T12:36:37.693Z,38.58
2022-08-26T12:39:12.484Z,38.41
2022-08-26T12:41:50.529Z,38.54
2022-08-26T12:44:36.724Z,37.92
2022-08-26T12:47:10.197Z,38.34
2022-08-26T12:49:40.763Z,38.44
2022-08-26T12:52:30.145Z,38.38
2022-08-26T12:55:03.398Z,37.56
2022-08-26T12:57:35.237Z,37.91
2022-08-26T13:00:30.372Z,37.88
2022-08-26T13:02:59.304Z,36.80
2022-08-26T13:05:33.196Z,37.11
2022-08-26T13:08:16.969Z,37.46
2022-08-26T13:10:48.923Z,37.44
2022-08-26T13:13:17.378Z,37.69
2022-08-26T13:15:45.916Z,37.71
2022-08-26T13:18:14.496Z,38.02
2022-08-26T13:20:44.955Z,37.42
2022-08-26T13:23:15.068Z,37.47
2022-08-26T13:25:43.803Z,37.44
2022-08-26T13:28:13.758Z,37.63
2022-08-26T13:30:45.639Z,37.76
2022-08-26T13:33:14.964Z,37.51
2022-08-26T13:35:43.422Z,37.56
2022-08-26T13:38:22.326Z,37.21
2022-08-26T13:41:02.766Z,37.55
2022-08-26T13:43:33.798Z,37.70
2022-08-26T13:46:02.772Z,37.80
2022-08-26T13:48:31.538Z,37.84
2022-08-26T13:51:00.277Z,37.94
2022-08-26T13:53:29.567Z,37.95
2022-08-26T13:55:58.147Z,37.83
2022-08-26T13:58:26.844Z,37.44
2022-08-26T14:00:58.802Z,37.20
2022-08-26T14:03:28.229Z,37.32
2022-08-26T14:05:56.810Z,37.09
2022-08-26T14:08:25.396Z,37.04
2022-08-26T14:10:54.058Z,36.85
2022-08-26T14:13:22.725Z,36.93
2022-08-26T14:15:51.348Z,36.88
2022-08-26T14:18:29.212Z,36.54
2022-08-26T14:20:58.000Z,36.64
2022-08-26T14:23:26.455Z,36.81
2022-08-26T14:25:55.525Z,36.60
2022-08-26T14:30:59.512Z,36.46
2022-08-26T14:33:32.847Z,36.39
2022-08-26T14:36:15.233Z,36.28
2022-08-26T14:38:43.703Z,36.38
2022-08-26T14:41:13.680Z,36.16
2022-08-26T14:43:48.083Z,36.07
2022-08-26T14:46:17.126Z,35.77
2022-08-26T14:48:47.057Z,35.72
2022-08-26T14:51:15.567Z,35.84
2022-08-26T14:54:01.598Z,35.92
2022-08-26T14:56:32.114Z,35.49
2022-08-26T14:59:00.859Z,35.26
2022-08-26T15:01:31.099Z,35.14
2022-08-26T15:04:02.456Z,34.80
2022-08-26T15:06:32.059Z,34.82
2022-08-26T15:09:01.122Z,34.68
2022-08-26T15:11:29.809Z,34.96
2022-08-26T15:13:59.922Z,34.95
2022-08-26T15:16:29.278Z,34.63
2022-08-26T15:18:58.161Z,34.52
2022-08-26T15:21:28.798Z,34.61
2022-08-26T15:23:57.280Z,34.52
2022-08-26T15:26:25.838Z,34.37
2022-08-26T15:28:54.316Z,34.36
2022-08-26T15:31:31.148Z,34.29
2022-08-26T15:34:02.578Z,34.42
2022-08-26T15:36:33.607Z,34.58
2022-08-26T15:39:02.865Z,34.43
2022-08-26T15:41:31.477Z,34.53
2022-08-26T15:44:04.215Z,34.65
2022-08-26T15:46:32.833Z,34.52
2022-08-26T15:49:01.689Z,34.58
2022-08-26T15:51:45.802Z,34.40
2022-08-26T15:54:16.105Z,34.09
2022-08-26T15:56:45.564Z,34.20
2022-08-26T15:59:16.615Z,34.00
2022-08-26T16:01:45.803Z,33.96
2022-08-26T16:04:15.021Z,33.90
2022-08-26T16:06:50.285Z,33.88
2022-08-26T16:09:20.138Z,33.84
2022-08-26T16:11:48.774Z,33.81
2022-08-26T16:14:17.757Z,33.65
2022-08-26T16:16:47.222Z,33.64
2022-08-26T16:19:16.606Z,33.50
2022-08-26T16:21:46.764Z,33.71
2022-08-26T16:24:15.485Z,33.69
2022-08-26T16:26:45.302Z,33.60
2022-08-26T16:29:17.126Z,33.65
2022-08-26T16:31:45.685Z,33.69
2022-08-26T16:34:14.425Z,33.75
2022-08-26T16:36:43.882Z,33.84
2022-08-26T16:39:14.226Z,33.73
2022-08-26T16:41:42.730Z,33.59
2022-08-26T16:44:12.081Z,33.62
2022-08-26T16:46:41.291Z,33.51
2022-08-26T16:49:09.865Z,33.51
2022-08-26T16:51:38.569Z,33.46
2022-08-26T16:54:08.871Z,33.62
2022-08-26T16:56:39.424Z,33.64
2022-08-26T16:59:11.633Z,33.54
2022-08-26T17:01:40.332Z,33.42
2022-08-26T17:04:09.333Z,33.52
2022-08-26T17:06:38.414Z,33.29
2022-08-26T17:09:07.155Z,33.16
2022-08-26T17:11:36.175Z,33.04
2022-08-26T17:14:06.414Z,32.85
2022-08-26T17:16:35.336Z,32.69
2022-08-26T17:19:04.681Z,32.56
2022-08-26T17:21:35.091Z,32.39
2022-08-26T17:24:04.155Z,32.42
2022-08-26T17:26:32.661Z,32.40
2022-08-26T17:29:01.311Z,32.42
2022-08-26T17:31:32.765Z,32.17
2022-08-26T17:34:01.471Z,32.23
2022-08-26T17:36:30.038Z,32.01
2022-08-26T17:39:00.115Z,31.92
2022-08-26T17:41:28.753Z,32.04
2022-08-26T17:43:57.391Z,31.99
2022-08-26T17:46:26.002Z,32.01
2022-08-26T17:48:56.532Z,32.11
2022-08-26T17:51:25.439Z,32.25
2022-08-26T17:53:54.607Z,32.03
2022-08-26T17:56:25.688Z,31.96
2022-08-26T17:58:56.872Z,31.85
2022-08-26T18:01:27.623Z,31.88
2022-08-26T18:04:00.420Z,31.50
2022-08-26T18:06:31.421Z,31.63
2022-08-26T18:09:00.535Z,31.71
2022-08-26T18:11:29.430Z,31.72
2022-08-26T18:13:58.344Z,31.76
2022-08-26T18:16:27.490Z,31.72
2022-08-26T18:18:58.597Z,31.45
2022-08-26T18:21:28.944Z,31.50
2022-08-26T18:23:57.667Z,31.30
2022-08-26T18:26:31.351Z,31.13
2022-08-26T18:29:00.541Z,30.99
2022-08-26T18:31:30.341Z,30.94
2022-08-26T18:34:01.519Z,30.87
2022-08-26T18:36:31.977Z,30.76
2022-08-26T18:39:01.334Z,30.67
2022-08-26T18:41:31.812Z,30.56
2022-08-26T18:44:01.047Z,30.46
2022-08-26T18:46:29.799Z,30.42
2022-08-26T18:48:59.928Z,30.34
2022-08-26T18:51:30.789Z,30.12
2022-08-26T18:54:00.307Z,29.79
2022-08-26T18:56:29.769Z,29.58
2022-08-26T18:58:59.104Z,29.37
2022-08-26T19:01:30.110Z,29.18
2022-08-26T19:04:02.099Z,29.11
2022-08-26T19:06:33.032Z,29.07
2022-08-26T19:09:01.904Z,29.04
2022-08-26T19:11:32.239Z,28.89
2022-08-26T19:14:07.850Z,28.79
2022-08-26T19:16:36.862Z,28.79
2022-08-26T19:19:07.757Z,28.72
2022-08-26T19:21:37.911Z,28.59
2022-08-26T19:24:09.471Z,28.37
2022-08-26T19:26:39.106Z,28.31
2022-08-26T19:29:07.781Z,28.18
2022-08-26T19:31:36.496Z,28.10
2022-08-26T19:34:07.178Z,27.98
2022-08-26T19:36:36.949Z,27.88
2022-08-26T19:39:07.660Z,27.38
2022-08-26T19:41:38.184Z,27.64
2022-08-26T19:44:09.383Z,27.49
2022-08-26T19:49:13.168Z,27.37
2022-08-26T19:51:42.061Z,27.28
2022-08-26T19:54:10.562Z,27.22
2022-08-26T19:56:39.043Z,27.19
2022-08-26T19:59:07.544Z,27.09
2022-08-26T20:01:36.792Z,27.06
2022-08-26T20:04:05.679Z,27.00
2022-08-26T20:06:35.913Z,26.95
2022-08-26T20:09:05.071Z,26.92
2022-08-26T20:11:33.618Z,26.90
2022-08-26T20:14:02.122Z,26.84
2022-08-26T20:16:30.687Z,26.88
2022-08-26T20:19:16.654Z,26.84
2022-08-26T20:21:47.086Z,26.78
2022-08-26T20:24:18.254Z,26.73
2022-08-26T20:26:47.023Z,26.65
2022-08-26T20:29:19.041Z,26.60
2022-08-26T20:31:48.004Z,26.53
2022-08-26T20:34:18.721Z,26.48
2022-08-26T20:36:50.301Z,26.34
2022-08-26T20:39:21.107Z,26.27
2022-08-26T20:41:50.365Z,26.34
2022-08-26T20:44:19.006Z,26.34
2022-08-26T20:46:47.525Z,26.29
2022-08-26T20:49:18.160Z,26.05
2022-08-26T20:51:51.174Z,25.97
2022-08-26T20:54:24.012Z,25.81
2022-08-26T20:56:56.693Z,26.02
2022-08-26T20:59:26.025Z,26.10
2022-08-26T21:01:54.615Z,26.07
2022-08-26T21:04:25.206Z,26.27
2022-08-26T21:06:55.754Z,26.34
2022-08-26T21:09:26.099Z,26.33
2022-08-26T21:11:55.956Z,26.17
2022-08-26T21:14:25.943Z,26.24
2022-08-26T21:16:54.918Z,26.31
2022-08-26T21:19:23.815Z,26.29
2022-08-26T21:21:52.289Z,26.34
2022-08-26T21:24:23.319Z,26.33
2022-08-26T21:26:51.806Z,26.36
2022-08-26T21:29:22.142Z,26.21
2022-08-26T21:31:50.746Z,26.28
2022-08-26T21:34:20.462Z,26.25
2022-08-26T21:36:49.736Z,26.16
2022-08-26T21:39:18.626Z,26.07
2022-08-26T21:41:48.690Z,25.93
2022-08-26T21:44:18.874Z,25.87
2022-08-26T21:46:47.724Z,25.66
2022-08-26T21:49:17.520Z,25.42
2022-08-26T21:51:49.296Z,25.36
2022-08-26T21:54:18.784Z,25.38
2022-08-26T21:56:49.363Z,25.34
2022-08-26T21:59:20.032Z,25.52
2022-08-26T22:01:49.034Z,25.48
2022-08-26T22:04:18.255Z,25.54
2022-08-26T22:06:57.956Z,25.52
2022-08-26T22:09:28.902Z,25.52
2022-08-26T22:11:59.492Z,25.48
2022-08-26T22:14:30.849Z,25.37
2022-08-26T22:17:00.593Z,25.34
2022-08-26T22:19:31.890Z,25.09
2022-08-26T22:22:03.870Z,25.05
2022-08-26T22:24:32.400Z,25.17
2022-08-26T22:27:02.379Z,25.13
2022-08-26T22:29:33.736Z,25.07
2022-08-26T22:32:02.452Z,24.84
2022-08-26T22:34:31.352Z,24.72
2022-08-26T22:37:00.242Z,24.68
2022-08-26T22:39:28.803Z,24.51
2022-08-26T22:41:57.558Z,24.80
2022-08-26T22:44:27.545Z,24.90
2022-08-26T22:46:56.156Z,24.90
2022-08-26T22:49:25.281Z,24.90
2022-08-26T22:51:54.085Z,24.89
2022-08-26T22:54:22.742Z,24.77
2022-08-26T22:56:51.388Z,24.60
2022-08-26T22:59:19.895Z,24.55
2022-08-26T23:01:49.753Z,24.55
2022-08-26T23:04:18.347Z,24.39
2022-08-26T23:06:47.505Z,24.35
2022-08-26T23:09:18.523Z,24.40
2022-08-26T23:11:48.999Z,24.40
2022-08-26T23:14:18.622Z,24.38
2022-08-26T23:16:47.762Z,24.35
2022-08-26T23:19:20.147Z,24.38
2022-08-26T23:21:49.634Z,24.39
2022-08-26T23:24:18.714Z,24.37
2022-08-26T23:26:48.184Z,24.17
2022-08-26T23:29:16.746Z,24.29
2022-08-26T23:31:45.666Z,24.32
2022-08-26T23:34:32.146Z,24.12
2022-08-26T23:37:06.731Z,24.01
2022-08-26T23:39:36.359Z,24.11
2022-08-26T23:42:06.646Z,24.08
2022-08-26T23:44:35.651Z,23.86
2022-08-26T23:47:04.951Z,23.98
2022-08-26T23:49:34.606Z,23.85
2022-08-26T23:52:22.785Z,23.92
2022-08-26T23:54:52.457Z,23.79
2022-08-26T23:57:22.970Z,23.75
2022-08-26T23:59:51.778Z,23.62
